Terminal Aerodrome Forecast
Issued by NWS

Home | Current Version | Previous Version | Graphics & Text | Print | Product List | Glossary On
Versions: 1 2 3 4 5 6 7 8 9 10 11 12 13 14 15 16 17 18 19 20 21
000
FTUS43 KBIS 251208 AAA
TAFJMS
TAF AMD
KJMS 251208Z 2512/2612 27013KT P6SM OVC015
     FM251500 28017G25KT P6SM BKN035
     FM251700 28017G25KT P6SM SCT080
     FM252100 27016KT P6SM SCT250
     FM260100 21009KT P6SM FEW250=

USA.gov is the U.S. government's official web portal to all federal, state and local government web resources and services.